createdAt,value
2022-09-23T00:01:21.231Z,100.00
2022-09-23T00:03:50.363Z,100.00
2022-09-23T00:06:21.341Z,100.00
2022-09-23T00:08:50.872Z,100.00
2022-09-23T00:11:22.042Z,100.00
2022-09-23T00:13:53.921Z,100.00
2022-09-23T00:16:25.119Z,100.00
2022-09-23T00:18:53.822Z,100.00
2022-09-23T00:21:25.295Z,100.00
2022-09-23T00:23:54.722Z,100.00
2022-09-23T00:26:24.662Z,100.00
2022-09-23T00:28:54.608Z,100.00
2022-09-23T00:31:25.039Z,100.00
2022-09-23T00:33:58.114Z,100.00
2022-09-23T00:36:27.267Z,100.00
2022-09-23T00:38:56.284Z,100.00
2022-09-23T00:41:25.548Z,100.00
2022-09-23T00:43:57.622Z,100.00
2022-09-23T00:46:33.710Z,100.00
2022-09-23T00:49:08.036Z,100.00
2022-09-23T00:51:40.844Z,100.00
2022-09-23T00:54:09.666Z,100.00
2022-09-23T00:56:39.840Z,100.00
2022-09-23T00:59:10.969Z,100.00
2022-09-23T01:01:40.301Z,100.00
2022-09-23T01:04:09.981Z,100.00
2022-09-23T01:06:38.475Z,100.00
2022-09-23T01:09:07.100Z,100.00
2022-09-23T01:11:49.976Z,100.00
2022-09-23T01:14:38.179Z,100.00
2022-09-23T01:17:12.626Z,100.00
2022-09-23T01:20:15.316Z,100.00
2022-09-23T01:22:50.138Z,100.00
2022-09-23T01:25:41.305Z,100.00
2022-09-23T01:28:30.408Z,100.00
2022-09-23T01:31:07.385Z,100.00
2022-09-23T01:33:44.173Z,100.00
2022-09-23T01:36:22.519Z,100.00
2022-09-23T01:38:58.708Z,100.00
2022-09-23T01:41:47.340Z,100.00
2022-09-23T01:44:24.114Z,100.00
2022-09-23T01:47:00.858Z,100.00
2022-09-23T01:49:34.126Z,100.00
2022-09-23T01:52:10.168Z,100.00
2022-09-23T01:54:42.355Z,100.00
2022-09-23T01:57:18.929Z,100.00
2022-09-23T01:59:51.846Z,100.00
2022-09-23T02:02:29.437Z,100.00
2022-09-23T02:05:03.463Z,100.00
2022-09-23T02:07:37.307Z,100.00
2022-09-23T02:10:11.719Z,100.00
2022-09-23T02:12:42.277Z,100.00
2022-09-23T02:15:17.019Z,100.00
2022-09-23T02:17:52.222Z,100.00
2022-09-23T02:20:26.150Z,100.00
2022-09-23T02:23:03.183Z,100.00
2022-09-23T02:25:45.058Z,100.00
2022-09-23T02:28:17.869Z,100.00
2022-09-23T02:30:51.241Z,100.00
2022-09-23T02:33:25.670Z,100.00
2022-09-23T02:35:59.393Z,100.00
2022-09-23T02:38:34.830Z,100.00
2022-09-23T02:41:09.727Z,100.00
2022-09-23T02:43:45.364Z,100.00
2022-09-23T02:46:14.477Z,100.00
2022-09-23T02:48:48.060Z,100.00
2022-09-23T02:51:17.101Z,100.00
2022-09-23T02:53:45.931Z,100.00
2022-09-23T02:56:16.846Z,100.00
2022-09-23T02:58:47.038Z,100.00
2022-09-23T03:01:32.648Z,100.00
2022-09-23T03:04:14.873Z,100.00
2022-09-23T03:06:53.575Z,100.00
2022-09-23T03:09:27.766Z,100.00
2022-09-23T03:12:06.743Z,100.00
2022-09-23T03:14:44.635Z,100.00
2022-09-23T03:17:20.243Z,100.00
2022-09-23T03:19:55.356Z,100.00
2022-09-23T03:22:29.157Z,100.00
2022-09-23T03:25:03.818Z,100.00
2022-09-23T03:27:36.333Z,100.00
2022-09-23T03:30:06.450Z,100.00
2022-09-23T03:32:36.299Z,100.00
2022-09-23T03:35:07.478Z,100.00
2022-09-23T03:37:41.325Z,100.00
2022-09-23T03:40:15.133Z,100.00
2022-09-23T03:42:44.069Z,100.00
2022-09-23T03:45:18.564Z,100.00
2022-09-23T03:47:47.958Z,100.00
2022-09-23T03:50:18.530Z,100.00
2022-09-23T03:52:47.617Z,100.00
2022-09-23T03:55:16.448Z,100.00
2022-09-23T03:57:45.244Z,100.00
2022-09-23T04:00:15.596Z,100.00
2022-09-23T04:02:58.369Z,100.00
2022-09-23T04:05:31.255Z,100.00
2022-09-23T04:07:59.785Z,100.00
2022-09-23T04:10:28.229Z,100.00
2022-09-23T04:12:56.759Z,100.00
2022-09-23T04:15:25.190Z,100.00
2022-09-23T04:17:53.648Z,100.00
2022-09-23T04:20:22.123Z,100.00
2022-09-23T04:22:51.961Z,100.00
2022-09-23T04:25:20.738Z,100.00
2022-09-23T04:27:49.553Z,100.00
2022-09-23T04:30:18.836Z,100.00
2022-09-23T04:32:47.264Z,100.00
2022-09-23T04:35:15.863Z,100.00
2022-09-23T04:37:44.430Z,100.00
2022-09-23T04:40:14.271Z,100.00
2022-09-23T04:42:42.780Z,100.00
2022-09-23T04:45:11.982Z,100.00
2022-09-23T04:47:40.886Z,100.00
2022-09-23T04:50:10.323Z,100.00
2022-09-23T04:52:38.858Z,100.00
2022-09-23T04:55:11.205Z,100.00
2022-09-23T04:57:42.113Z,100.00
2022-09-23T05:00:12.340Z,100.00
2022-09-23T05:02:44.837Z,100.00
2022-09-23T05:05:13.650Z,100.00
2022-09-23T05:07:42.787Z,100.00
2022-09-23T05:10:11.522Z,100.00
2022-09-23T05:12:41.397Z,100.00
2022-09-23T05:15:10.335Z,100.00
2022-09-23T05:17:38.799Z,100.00
2022-09-23T05:20:08.314Z,100.00
2022-09-23T05:22:36.779Z,100.00
2022-09-23T05:25:05.601Z,100.00
2022-09-23T05:27:34.021Z,100.00
2022-09-23T05:30:04.223Z,100.00
2022-09-23T05:32:33.157Z,100.00
2022-09-23T05:35:01.933Z,100.00
2022-09-23T05:37:33.272Z,100.00
2022-09-23T05:40:01.702Z,100.00
2022-09-23T05:42:30.137Z,100.00
2022-09-23T05:44:58.631Z,100.00
2022-09-23T05:47:28.484Z,100.00
2022-09-23T05:50:00.199Z,100.00
2022-09-23T05:52:29.397Z,100.00
2022-09-23T05:54:57.839Z,100.00
2022-09-23T05:57:26.634Z,100.00
2022-09-23T05:59:55.153Z,100.00
2022-09-23T06:02:23.756Z,100.00
2022-09-23T06:04:53.712Z,100.00
2022-09-23T06:07:22.236Z,100.00
2022-09-23T06:09:50.688Z,100.00
2022-09-23T06:12:19.137Z,100.00
2022-09-23T06:14:48.282Z,100.00
2022-09-23T06:17:16.750Z,100.00
2022-09-23T06:19:45.317Z,100.00
2022-09-23T06:22:18.021Z,100.00
2022-09-23T06:24:46.468Z,100.00
2022-09-23T06:27:14.897Z,100.00
2022-09-23T06:29:44.085Z,100.00
2022-09-23T06:32:12.801Z,100.00
2022-09-23T06:34:51.021Z,100.00
2022-09-23T06:37:21.699Z,100.00
2022-09-23T06:39:50.174Z,100.00
2022-09-23T06:42:18.652Z,100.00
2022-09-23T06:44:47.169Z,100.00
2022-09-23T06:47:15.586Z,100.00
2022-09-23T06:49:44.233Z,100.00
2022-09-23T06:52:12.722Z,100.00
2022-09-23T06:54:42.599Z,100.00
2022-09-23T06:57:11.407Z,100.00
2022-09-23T06:59:40.030Z,100.00
2022-09-23T07:02:10.220Z,100.00
2022-09-23T07:04:38.828Z,100.00
2022-09-23T07:07:07.369Z,100.00
2022-09-23T07:09:35.914Z,100.00
2022-09-23T07:12:05.800Z,100.00
2022-09-23T07:14:34.261Z,100.00
2022-09-23T07:17:03.355Z,100.00
2022-09-23T07:19:31.838Z,100.00
2022-09-23T07:22:00.392Z,100.00
2022-09-23T07:24:29.249Z,100.00
2022-09-23T07:26:57.715Z,100.00
2022-09-23T07:29:28.007Z,100.00
2022-09-23T07:32:08.920Z,100.00
2022-09-23T07:34:41.347Z,100.00
2022-09-23T07:37:10.852Z,100.00
2022-09-23T07:39:39.893Z,100.00
2022-09-23T07:42:08.454Z,100.00
2022-09-23T07:44:38.324Z,100.00
2022-09-23T07:47:07.874Z,100.00
2022-09-23T07:49:36.833Z,100.00
2022-09-23T07:52:06.028Z,100.00
2022-09-23T07:54:34.480Z,100.00
2022-09-23T07:57:03.134Z,100.00
2022-09-23T07:59:32.000Z,100.00
2022-09-23T08:02:01.952Z,100.00
2022-09-23T08:04:33.422Z,100.00
2022-09-23T08:07:04.243Z,100.00
2022-09-23T08:09:35.237Z,100.00
2022-09-23T08:12:03.829Z,100.00
2022-09-23T08:14:32.932Z,100.00
2022-09-23T08:17:02.841Z,100.00
2022-09-23T08:19:31.279Z,100.00
2022-09-23T08:21:59.872Z,100.00
2022-09-23T08:24:30.381Z,100.00
2022-09-23T08:26:59.330Z,100.00
2022-09-23T08:29:27.942Z,100.00
2022-09-23T08:31:56.535Z,100.00
2022-09-23T08:34:29.232Z,94.34
2022-09-23T08:36:58.115Z,85.79
2022-09-23T08:39:26.561Z,86.41
2022-09-23T08:42:08.438Z,93.96
2022-09-23T08:44:48.313Z,99.54
2022-09-23T08:47:22.634Z,100.00
2022-09-23T08:50:01.652Z,100.00
2022-09-23T08:52:35.919Z,100.00
2022-09-23T08:55:06.253Z,100.00
2022-09-23T08:58:02.218Z,100.00
2022-09-23T09:00:37.341Z,100.00
2022-09-23T09:03:19.609Z,100.00
2022-09-23T09:05:54.421Z,100.00
2022-09-23T09:08:28.101Z,99.91
2022-09-23T09:10:58.349Z,97.33
2022-09-23T09:13:32.841Z,94.71
2022-09-23T09:16:42.155Z,100.00
2022-09-23T09:19:20.412Z,100.00
2022-09-23T09:21:54.995Z,100.00
2022-09-23T09:24:31.164Z,100.00
2022-09-23T09:27:00.209Z,100.00
2022-09-23T09:29:35.730Z,100.00
2022-09-23T09:32:20.583Z,91.93
2022-09-23T09:34:55.604Z,81.06
2022-09-23T09:37:33.057Z,72.45
2022-09-23T09:40:02.219Z,64.17
2022-09-23T09:42:39.220Z,60.31
2022-09-23T09:45:19.952Z,54.35
2022-09-23T09:47:56.862Z,51.90
2022-09-23T09:50:44.322Z,46.57
2022-09-23T09:53:24.893Z,44.13
2022-09-23T09:56:05.412Z,42.39
2022-09-23T09:58:49.364Z,40.44
2022-09-23T10:01:26.612Z,39.17
2022-09-23T10:03:59.477Z,38.38
2022-09-23T10:06:29.982Z,43.76
2022-09-23T10:09:17.147Z,43.43
2022-09-23T10:12:04.927Z,43.77
2022-09-23T10:14:33.910Z,44.61
2022-09-23T10:17:06.981Z,47.02
2022-09-23T10:19:38.073Z,53.80
2022-09-23T10:22:21.948Z,53.46
2022-09-23T10:24:55.257Z,49.78
2022-09-23T10:27:32.696Z,45.15
2022-09-23T10:30:03.654Z,43.68
2022-09-23T10:32:34.543Z,46.51
2022-09-23T10:35:16.219Z,44.07
2022-09-23T10:37:48.674Z,41.88
2022-09-23T10:40:45.857Z,41.60
2022-09-23T10:43:52.486Z,45.80
2022-09-23T10:46:41.756Z,41.64
2022-09-23T10:49:36.764Z,39.84
2022-09-23T10:52:20.520Z,42.48
2022-09-23T10:55:00.565Z,46.11
2022-09-23T10:57:48.845Z,43.11
2022-09-23T11:00:24.203Z,42.62
2022-09-23T11:03:17.632Z,42.37
2022-09-23T11:05:53.805Z,44.30
2022-09-23T11:08:42.776Z,44.19
2022-09-23T11:11:25.526Z,41.49
2022-09-23T11:14:08.206Z,40.13
2022-09-23T11:16:50.158Z,40.14
2022-09-23T11:19:50.262Z,37.83
2022-09-23T11:22:37.616Z,38.05
2022-09-23T11:25:30.576Z,39.44
2022-09-23T11:28:30.461Z,38.96
2022-09-23T11:31:10.264Z,39.85
2022-09-23T11:33:53.736Z,38.08
2022-09-23T11:36:28.966Z,39.28
2022-09-23T11:39:01.347Z,39.82
2022-09-23T11:41:32.822Z,41.03
2022-09-23T11:44:08.981Z,42.18
2022-09-23T11:46:43.424Z,41.32
2022-09-23T11:49:17.201Z,42.52
2022-09-23T11:52:01.614Z,44.46
2022-09-23T11:54:36.102Z,44.75
2022-09-23T11:57:09.367Z,42.95
2022-09-23T11:59:46.329Z,42.84
2022-09-23T12:02:25.706Z,40.08
2022-09-23T12:05:03.134Z,39.38
2022-09-23T12:07:43.594Z,39.93
2022-09-23T12:10:13.329Z,39.45
2022-09-23T12:12:49.011Z,38.91
2022-09-23T12:15:29.873Z,41.02
2022-09-23T12:18:19.656Z,44.67
2022-09-23T12:21:32.769Z,45.98
2022-09-23T12:24:19.346Z,47.00
2022-09-23T12:26:53.577Z,52.44
2022-09-23T12:29:22.532Z,59.01
2022-09-23T12:31:51.049Z,57.12
2022-09-23T12:34:30.256Z,58.42
2022-09-23T12:37:04.771Z,62.61
2022-09-23T12:39:37.373Z,65.67
2022-09-23T12:42:08.357Z,65.00
2022-09-23T12:44:41.461Z,66.23
2022-09-23T12:47:38.205Z,71.24
2022-09-23T12:50:39.856Z,72.37
2022-09-23T12:53:53.365Z,71.67
2022-09-23T12:56:26.603Z,69.45
2022-09-23T12:59:26.425Z,67.61
2022-09-23T13:01:55.873Z,65.70
2022-09-23T13:04:51.467Z,65.52
2022-09-23T13:07:25.097Z,69.24
2022-09-23T13:09:58.025Z,68.00
2022-09-23T13:12:32.983Z,71.52
2022-09-23T13:15:06.484Z,70.62
2022-09-23T13:17:39.633Z,73.20
2022-09-23T13:20:36.596Z,71.22
2022-09-23T13:23:21.775Z,73.47
2022-09-23T13:25:52.628Z,74.24
2022-09-23T13:28:33.273Z,74.96
2022-09-23T13:31:06.988Z,76.38
2022-09-23T13:33:44.006Z,74.11
2022-09-23T13:36:15.275Z,74.92
2022-09-23T13:38:44.043Z,74.57
2022-09-23T13:41:16.841Z,76.35
2022-09-23T13:43:49.558Z,75.61
2022-09-23T13:46:20.556Z,75.78
2022-09-23T13:48:54.847Z,73.63
2022-09-23T13:51:27.093Z,79.26
2022-09-23T13:53:58.888Z,80.57
2022-09-23T13:56:29.265Z,82.89
2022-09-23T14:02:04.361Z,84.92
2022-09-23T14:04:32.927Z,84.64
2022-09-23T14:07:02.383Z,83.94
2022-09-23T14:09:33.299Z,83.68
2022-09-23T14:12:03.183Z,83.77
2022-09-23T14:14:32.428Z,83.15
2022-09-23T14:17:02.763Z,87.46
2022-09-23T14:19:31.251Z,90.16
2022-09-23T14:22:00.602Z,93.68
2022-09-23T14:24:34.705Z,96.69
2022-09-23T14:27:16.331Z,97.24
2022-09-23T14:29:46.884Z,97.47
2022-09-23T14:32:21.252Z,100.00
2022-09-23T14:34:52.568Z,100.00
2022-09-23T14:37:46.654Z,100.00
2022-09-23T14:40:18.987Z,100.00
2022-09-23T14:42:51.501Z,100.00
2022-09-23T14:45:23.209Z,100.00
2022-09-23T14:47:58.161Z,100.00
2022-09-23T14:50:39.709Z,100.00
2022-09-23T14:53:41.064Z,100.00
2022-09-23T14:56:20.661Z,100.00
2022-09-23T14:58:53.276Z,100.00
2022-09-23T15:01:39.963Z,100.00
2022-09-23T15:04:15.620Z,100.00
2022-09-23T15:06:51.297Z,100.00
2022-09-23T15:09:24.829Z,100.00
2022-09-23T15:11:55.223Z,100.00
2022-09-23T15:14:37.697Z,100.00
2022-09-23T15:17:15.661Z,100.00
2022-09-23T15:19:46.654Z,100.00
2022-09-23T15:22:16.774Z,100.00
2022-09-23T15:24:46.722Z,100.00
2022-09-23T15:27:36.718Z,100.00
2022-09-23T15:30:17.239Z,100.00
2022-09-23T15:32:46.461Z,100.00
2022-09-23T15:35:18.854Z,100.00
2022-09-23T15:37:49.794Z,100.00
2022-09-23T15:40:22.839Z,100.00
2022-09-23T15:42:55.549Z,100.00
2022-09-23T15:45:30.770Z,100.00
2022-09-23T15:48:03.403Z,100.00
2022-09-23T15:50:35.595Z,100.00
2022-09-23T15:53:04.942Z,100.00
2022-09-23T15:55:33.794Z,100.00
2022-09-23T15:58:02.726Z,100.00
2022-09-23T16:00:31.386Z,100.00
2022-09-23T16:02:59.826Z,100.00
2022-09-23T16:05:33.399Z,100.00
2022-09-23T16:08:08.515Z,100.00
2022-09-23T16:10:38.309Z,100.00
2022-09-23T16:13:11.781Z,100.00
2022-09-23T16:15:40.767Z,100.00
2022-09-23T16:18:10.223Z,100.00
2022-09-23T16:20:42.051Z,100.00
2022-09-23T16:23:34.730Z,100.00
2022-09-23T16:26:07.424Z,100.00
2022-09-23T16:28:36.203Z,100.00
2022-09-23T16:31:04.725Z,100.00
2022-09-23T16:33:33.772Z,100.00
2022-09-23T16:36:02.739Z,100.00
2022-09-23T16:38:33.310Z,100.00
2022-09-23T16:41:03.080Z,100.00
2022-09-23T16:43:39.410Z,100.00
2022-09-23T16:46:09.055Z,100.00
2022-09-23T16:48:40.663Z,100.00
2022-09-23T16:51:09.870Z,100.00
2022-09-23T16:53:39.815Z,100.00
2022-09-23T16:56:09.821Z,100.00
2022-09-23T16:58:38.814Z,100.00
2022-09-23T17:01:26.408Z,100.00
2022-09-23T17:03:55.483Z,100.00
2022-09-23T17:06:25.183Z,100.00
2022-09-23T17:08:55.234Z,100.00
2022-09-23T17:11:24.642Z,100.00
2022-09-23T17:13:53.292Z,100.00
2022-09-23T17:16:26.859Z,100.00
2022-09-23T17:18:56.670Z,100.00
2022-09-23T17:21:27.172Z,100.00
2022-09-23T17:23:58.754Z,100.00
2022-09-23T17:26:28.509Z,100.00
2022-09-23T17:28:59.485Z,100.00
2022-09-23T17:31:28.639Z,100.00
2022-09-23T17:33:57.533Z,100.00
2022-09-23T17:36:26.037Z,100.00
2022-09-23T17:38:56.423Z,100.00
2022-09-23T17:41:24.880Z,100.00
2022-09-23T17:44:00.622Z,100.00
2022-09-23T17:46:30.213Z,100.00
2022-09-23T17:48:59.155Z,100.00
2022-09-23T17:51:27.969Z,100.00
2022-09-23T17:53:57.837Z,100.00
2022-09-23T17:56:30.055Z,100.00
2022-09-23T17:59:01.873Z,100.00
2022-09-23T18:01:31.238Z,100.00
2022-09-23T18:04:00.799Z,100.00
2022-09-23T18:06:31.849Z,100.00
2022-09-23T18:09:04.337Z,100.00
2022-09-23T18:11:35.086Z,100.00
2022-09-23T18:14:05.245Z,100.00
2022-09-23T18:16:37.257Z,100.00
2022-09-23T18:19:06.819Z,100.00
2022-09-23T18:21:37.805Z,100.00
2022-09-23T18:27:00.008Z,100.00
2022-09-23T18:29:28.847Z,100.00
2022-09-23T18:31:58.327Z,100.00
2022-09-23T18:34:26.895Z,100.00
2022-09-23T18:36:56.281Z,100.00
2022-09-23T18:39:26.161Z,100.00
2022-09-23T18:41:55.038Z,100.00
2022-09-23T18:44:24.371Z,100.00
2022-09-23T18:46:52.981Z,100.00
2022-09-23T18:49:39.095Z,100.00
2022-09-23T18:52:07.538Z,100.00
2022-09-23T18:54:37.380Z,100.00
2022-09-23T18:57:06.057Z,100.00
2022-09-23T18:59:34.502Z,100.00
2022-09-23T19:02:03.040Z,100.00
2022-09-23T19:04:31.877Z,100.00
2022-09-23T19:07:00.384Z,100.00
2022-09-23T19:09:28.845Z,100.00
2022-09-23T19:11:58.737Z,100.00
2022-09-23T19:14:27.231Z,100.00
2022-09-23T19:16:55.678Z,100.00
2022-09-23T19:19:24.713Z,100.00
2022-09-23T19:21:54.844Z,100.00
2022-09-23T19:24:23.414Z,100.00
2022-09-23T19:26:51.887Z,100.00
2022-09-23T19:29:21.984Z,100.00
2022-09-23T19:31:51.305Z,100.00
2022-09-23T19:34:23.943Z,100.00
2022-09-23T19:36:52.915Z,100.00
2022-09-23T19:39:23.131Z,100.00
2022-09-23T19:41:52.383Z,100.00
2022-09-23T19:44:24.151Z,100.00
2022-09-23T19:46:56.510Z,100.00
2022-09-23T19:49:26.414Z,100.00
2022-09-23T19:51:56.590Z,100.00
2022-09-23T19:54:27.549Z,100.00
2022-09-23T19:56:56.556Z,100.00
2022-09-23T19:59:28.316Z,100.00
2022-09-23T20:01:56.852Z,100.00
2022-09-23T20:04:26.280Z,100.00
2022-09-23T20:06:54.767Z,100.00
2022-09-23T20:09:23.309Z,100.00
2022-09-23T20:11:52.256Z,100.00
2022-09-23T20:14:22.153Z,100.00
2022-09-23T20:16:52.054Z,100.00
2022-09-23T20:19:20.512Z,100.00
2022-09-23T20:22:09.814Z,100.00
2022-09-23T20:24:38.257Z,100.00
2022-09-23T20:27:11.867Z,100.00
2022-09-23T20:29:40.341Z,100.00
2022-09-23T20:32:11.501Z,100.00
2022-09-23T20:34:41.337Z,100.00
2022-09-23T20:37:10.904Z,100.00
2022-09-23T20:39:39.401Z,100.00
2022-09-23T20:42:09.332Z,100.00
2022-09-23T20:44:37.808Z,100.00
2022-09-23T20:47:06.897Z,100.00
2022-09-23T20:49:37.868Z,100.00
2022-09-23T20:52:06.444Z,100.00
2022-09-23T20:54:34.935Z,100.00
2022-09-23T20:57:03.372Z,100.00
2022-09-23T20:59:31.818Z,100.00
2022-09-23T21:02:00.502Z,100.00
2022-09-23T21:04:29.289Z,100.00
2022-09-23T21:06:59.536Z,100.00
2022-09-23T21:09:29.220Z,100.00
2022-09-23T21:11:58.059Z,100.00
2022-09-23T21:14:26.543Z,100.00
2022-09-23T21:16:55.221Z,100.00
2022-09-23T21:19:24.505Z,100.00
2022-09-23T21:21:52.947Z,100.00
2022-09-23T21:25:00.385Z,100.00
2022-09-23T21:27:11.690Z,100.00
2022-09-23T21:29:40.291Z,100.00
2022-09-23T21:32:08.669Z,100.00
2022-09-23T21:34:37.118Z,100.00
2022-09-23T21:37:06.123Z,100.00
2022-09-23T21:39:35.955Z,100.00
2022-09-23T21:42:04.531Z,100.00
2022-09-23T21:44:33.222Z,100.00
2022-09-23T21:47:01.728Z,100.00
2022-09-23T21:49:31.297Z,100.00
2022-09-23T21:52:00.984Z,100.00
2022-09-23T21:54:29.730Z,100.00
2022-09-23T21:57:00.550Z,100.00
2022-09-23T21:59:29.214Z,100.00
2022-09-23T22:01:57.669Z,100.00
2022-09-23T22:04:26.178Z,100.00
2022-09-23T22:06:55.183Z,100.00
2022-09-23T22:09:23.670Z,100.00
2022-09-23T22:12:09.974Z,100.00
2022-09-23T22:14:40.368Z,100.00
2022-09-23T22:17:10.744Z,100.00
2022-09-23T22:19:45.778Z,100.00
2022-09-23T22:22:17.938Z,100.00
2022-09-23T22:24:48.031Z,100.00
2022-09-23T22:27:18.199Z,100.00
2022-09-23T22:30:05.727Z,100.00
2022-09-23T22:32:43.805Z,100.00
2022-09-23T22:35:16.696Z,100.00
2022-09-23T22:37:45.902Z,100.00
2022-09-23T22:40:16.054Z,100.00
2022-09-23T22:42:45.038Z,100.00
2022-09-23T22:45:15.031Z,100.00
2022-09-23T22:47:45.976Z,100.00
2022-09-23T22:50:15.700Z,100.00
2022-09-23T22:52:44.272Z,100.00
2022-09-23T22:55:13.618Z,100.00
2022-09-23T22:57:42.539Z,100.00
2022-09-23T23:00:12.803Z,100.00
2022-09-23T23:02:42.799Z,100.00
2022-09-23T23:05:11.491Z,100.00
2022-09-23T23:07:40.654Z,100.00
2022-09-23T23:10:10.507Z,100.00
2022-09-23T23:12:39.641Z,100.00
2022-09-23T23:15:10.750Z,100.00
2022-09-23T23:17:40.608Z,100.00
2022-09-23T23:20:11.572Z,100.00
2022-09-23T23:22:40.180Z,100.00
2022-09-23T23:25:09.859Z,100.00
2022-09-23T23:27:38.429Z,100.00
2022-09-23T23:30:08.383Z,100.00
2022-09-23T23:32:36.845Z,100.00
2022-09-23T23:35:06.028Z,100.00
2022-09-23T23:37:35.887Z,100.00
2022-09-23T23:40:04.891Z,100.00
2022-09-23T23:42:34.772Z,100.00
2022-09-23T23:45:03.237Z,100.00
2022-09-23T23:47:31.733Z,100.00
2022-09-23T23:50:00.231Z,100.00
2022-09-23T23:52:29.079Z,100.00
2022-09-23T23:54:58.984Z,100.00
2022-09-23T23:57:27.523Z,100.00
2022-09-23T23:59:55.952Z,100.00
